createdAt,value
2018-08-30T00:00:24.985Z,12.13
2018-08-30T00:02:53.451Z,12.37
2018-08-30T00:05:28.692Z,16.60
2018-08-30T00:07:57.072Z,13.78
2018-08-30T00:10:25.500Z,10.10
2018-08-30T00:12:53.851Z,9.38
2018-08-30T00:15:22.337Z,14.03
2018-08-30T00:17:50.707Z,11.45
2018-08-30T00:20:19.241Z,13.75
2018-08-30T00:22:47.698Z,14.43
2018-08-30T00:25:16.141Z,13.88
2018-08-30T00:27:44.765Z,12.82
2018-08-30T00:30:13.150Z,15.30
2018-08-30T00:32:41.521Z,12.28
2018-08-30T00:35:09.925Z,13.48
2018-08-30T00:37:38.294Z,11.38
2018-08-30T00:40:06.836Z,8.63
2018-08-30T00:42:35.272Z,7.78
2018-08-30T00:45:03.662Z,11.70
2018-08-30T00:47:32.016Z,11.08
2018-08-30T00:50:00.388Z,12.05
2018-08-30T00:52:28.935Z,9.65
2018-08-30T00:54:57.299Z,11.60
2018-08-30T00:57:25.759Z,9.40
2018-08-30T00:59:54.113Z,11.03
2018-08-30T01:02:22.490Z,14.95
2018-08-30T01:04:50.903Z,10.78
2018-08-30T01:07:19.268Z,12.80
2018-08-30T01:09:47.651Z,12.73
2018-08-30T01:12:16.089Z,11.78
2018-08-30T01:14:44.491Z,9.78
2018-08-30T01:17:12.936Z,11.18
2018-08-30T01:19:41.443Z,10.38
2018-08-30T01:22:09.868Z,8.75
2018-08-30T01:24:38.214Z,12.37
2018-08-30T01:27:07.110Z,10.82
2018-08-30T01:29:35.485Z,12.53
2018-08-30T01:32:03.873Z,14.18
2018-08-30T01:34:32.282Z,11.08
2018-08-30T01:37:00.677Z,11.18
2018-08-30T01:39:29.237Z,11.43
2018-08-30T01:41:57.657Z,14.87
2018-08-30T01:44:26.044Z,11.10
2018-08-30T01:46:54.427Z,11.08
2018-08-30T01:49:22.830Z,15.03
2018-08-30T01:51:51.313Z,8.33
2018-08-30T01:54:19.664Z,13.03
2018-08-30T01:56:48.048Z,11.22
2018-08-30T01:59:16.476Z,13.62
2018-08-30T02:01:44.863Z,12.05
2018-08-30T02:04:13.305Z,10.25
2018-08-30T02:06:41.691Z,14.35
2018-08-30T02:09:10.111Z,8.78
2018-08-30T02:11:38.506Z,9.40
2018-08-30T02:14:07.097Z,20.95
2018-08-30T02:16:35.544Z,10.70
2018-08-30T02:19:03.893Z,15.72
2018-08-30T02:21:32.291Z,10.80
2018-08-30T02:24:00.680Z,12.55
2018-08-30T02:26:29.065Z,9.15
2018-08-30T02:28:57.494Z,10.75
2018-08-30T02:31:25.940Z,11.43
2018-08-30T02:33:54.427Z,11.30
2018-08-30T02:36:22.788Z,9.90
2018-08-30T02:38:51.141Z,11.43
2018-08-30T02:41:19.619Z,11.18
2018-08-30T02:43:48.050Z,13.95
2018-08-30T02:46:16.496Z,10.93
2018-08-30T02:48:44.915Z,9.98
2018-08-30T02:51:13.268Z,15.38
2018-08-30T02:53:41.718Z,13.28
2018-08-30T02:56:10.083Z,10.65
2018-08-30T02:58:38.637Z,10.00
2018-08-30T03:01:07.081Z,14.60
2018-08-30T03:03:35.491Z,8.68
2018-08-30T03:06:03.886Z,14.70
2018-08-30T03:08:32.274Z,12.30
2018-08-30T03:11:00.682Z,13.43
2018-08-30T03:13:29.232Z,12.25
2018-08-30T03:15:57.640Z,12.70
2018-08-30T03:18:26.096Z,10.85
2018-08-30T03:20:54.578Z,11.22
2018-08-30T03:23:22.961Z,15.38
2018-08-30T03:25:51.618Z,12.58
2018-08-30T03:28:20.127Z,13.45
2018-08-30T03:30:48.623Z,14.00
2018-08-30T03:33:17.221Z,14.43
2018-08-30T03:35:45.635Z,12.07
2018-08-30T03:38:14.102Z,11.93
2018-08-30T03:40:42.775Z,14.45
2018-08-30T03:43:11.740Z,9.33
2018-08-30T03:45:40.164Z,10.03
2018-08-30T03:48:08.622Z,13.75
2018-08-30T03:50:37.008Z,15.03
2018-08-30T03:53:05.643Z,14.98
2018-08-30T03:55:34.040Z,12.80
2018-08-30T03:58:02.960Z,11.38
2018-08-30T04:00:31.469Z,11.25
2018-08-30T04:02:59.899Z,12.73
2018-08-30T04:05:28.289Z,14.10
2018-08-30T04:07:56.815Z,9.25
2018-08-30T04:10:25.187Z,8.35
2018-08-30T04:12:53.614Z,14.13
2018-08-30T04:15:21.983Z,13.22
2018-08-30T04:17:50.385Z,13.83
2018-08-30T04:20:18.840Z,14.00
2018-08-30T04:22:47.231Z,16.23
2018-08-30T04:25:15.652Z,10.08
2018-08-30T04:27:44.062Z,12.68
2018-08-30T04:30:12.510Z,10.10
2018-08-30T04:32:41.021Z,12.68
2018-08-30T04:35:09.511Z,13.93
2018-08-30T04:37:38.018Z,9.68
2018-08-30T04:40:06.532Z,9.25
2018-08-30T04:42:35.456Z,14.68
2018-08-30T04:45:03.876Z,17.35
2018-08-30T04:47:32.323Z,11.85
2018-08-30T04:50:00.859Z,13.10
2018-08-30T04:52:29.234Z,11.88
2018-08-30T04:54:57.692Z,15.38
2018-08-30T04:57:26.104Z,14.20
2018-08-30T04:59:54.489Z,14.10
2018-08-30T05:02:22.877Z,11.60
2018-08-30T05:04:51.270Z,15.43
2018-08-30T05:07:19.655Z,13.22
2018-08-30T05:09:48.130Z,12.73
2018-08-30T05:12:16.636Z,14.10
2018-08-30T05:14:45.111Z,16.15
2018-08-30T05:17:13.707Z,16.25
2018-08-30T05:19:42.735Z,12.25
2018-08-30T05:22:11.335Z,11.85
2018-08-30T05:24:40.130Z,11.60
2018-08-30T05:27:08.824Z,13.03
2018-08-30T05:29:37.383Z,13.25
2018-08-30T05:32:05.868Z,13.58
2018-08-30T05:34:34.388Z,11.75
2018-08-30T05:37:05.756Z,13.85
2018-08-30T05:39:34.287Z,13.13
2018-08-30T05:42:02.879Z,14.15
2018-08-30T05:44:31.426Z,11.48
2018-08-30T05:46:59.840Z,15.03
2018-08-30T05:49:28.319Z,9.65
2018-08-30T05:51:56.753Z,16.30
2018-08-30T05:54:25.339Z,14.75
2018-08-30T05:56:54.251Z,13.75
2018-08-30T05:59:22.709Z,17.50
2018-08-30T06:01:51.117Z,13.13
2018-08-30T06:04:19.661Z,14.80
2018-08-30T06:06:48.040Z,14.10
2018-08-30T06:09:16.533Z,15.20
2018-08-30T06:11:45.011Z,13.32
2018-08-30T06:14:13.582Z,15.50
2018-08-30T06:16:42.360Z,16.65
2018-08-30T06:19:10.854Z,16.15
2018-08-30T06:21:39.393Z,11.08
2018-08-30T06:24:07.887Z,23.55
2018-08-30T06:26:36.520Z,13.00
2018-08-30T06:29:05.523Z,16.75
2018-08-30T06:31:33.899Z,13.45
2018-08-30T06:34:02.375Z,17.05
2018-08-30T06:36:30.751Z,16.80
2018-08-30T06:38:59.356Z,16.87
2018-08-30T06:41:30.707Z,13.72
2018-08-30T06:43:59.377Z,19.23
2018-08-30T06:46:27.866Z,20.88
2018-08-30T06:48:56.348Z,23.65
2018-08-30T06:51:24.763Z,19.77
2018-08-30T06:53:53.402Z,24.27
2018-08-30T06:56:22.015Z,23.50
2018-08-30T06:58:50.475Z,18.45
2018-08-30T07:01:18.903Z,17.35
2018-08-30T07:03:47.496Z,22.35
2018-08-30T07:06:16.177Z,20.80
2018-08-30T07:08:44.834Z,19.60
2018-08-30T07:11:13.709Z,21.25
2018-08-30T07:13:42.837Z,17.48
2018-08-30T07:16:11.704Z,19.23
2018-08-30T07:18:40.561Z,21.48
2018-08-30T07:21:09.623Z,20.90
2018-08-30T07:23:38.013Z,21.35
2018-08-30T07:26:06.702Z,15.03
2018-08-30T07:28:35.216Z,17.42
2018-08-30T07:31:03.644Z,17.12
2018-08-30T07:33:32.247Z,17.75
2018-08-30T07:36:00.790Z,21.15
2018-08-30T07:38:29.193Z,24.20
2018-08-30T07:40:57.645Z,24.52
2018-08-30T07:43:26.036Z,27.07
2018-08-30T07:45:54.656Z,20.88
2018-08-30T07:48:23.218Z,22.67
2018-08-30T07:50:51.652Z,20.85
2018-08-30T07:53:20.055Z,18.07
2018-08-30T07:55:48.580Z,23.77
2018-08-30T07:58:17.052Z,25.08
2018-08-30T08:00:47.844Z,21.77
2018-08-30T08:03:17.340Z,21.93
2018-08-30T08:05:45.857Z,23.05
2018-08-30T08:08:14.459Z,27.02
2018-08-30T08:10:42.991Z,23.98
2018-08-30T08:13:11.424Z,20.08
2018-08-30T08:15:39.901Z,21.60
2018-08-30T08:18:08.343Z,23.85
2018-08-30T08:20:36.773Z,21.97
2018-08-30T08:23:05.207Z,22.65
2018-08-30T08:25:33.588Z,20.40
2018-08-30T08:28:02.063Z,21.93
2018-08-30T08:30:30.557Z,20.97
2018-08-30T08:32:58.951Z,20.15
2018-08-30T08:35:27.338Z,23.40
2018-08-30T08:37:55.819Z,24.45
2018-08-30T08:40:24.275Z,22.90
2018-08-30T08:42:52.771Z,20.97
2018-08-30T08:45:21.202Z,23.30
2018-08-30T08:47:49.761Z,24.05
2018-08-30T08:50:18.114Z,22.20
2018-08-30T08:52:46.661Z,28.90
2018-08-30T08:55:15.048Z,26.73
2018-08-30T08:57:43.486Z,27.35
2018-08-30T09:00:11.932Z,20.00
2018-08-30T09:02:40.472Z,22.37
2018-08-30T09:05:09.600Z,21.40
2018-08-30T09:07:38.091Z,19.85
2018-08-30T09:10:07.002Z,22.67
2018-08-30T09:12:35.435Z,24.00
2018-08-30T09:15:03.907Z,26.93
2018-08-30T09:17:32.495Z,24.37
2018-08-30T09:20:00.921Z,25.40
2018-08-30T09:22:29.307Z,23.83
2018-08-30T09:24:57.793Z,28.30
2018-08-30T09:27:26.204Z,26.87
2018-08-30T09:29:54.601Z,25.82
2018-08-30T09:32:23.181Z,23.87
2018-08-30T09:34:51.804Z,27.52
2018-08-30T09:37:20.182Z,24.87
2018-08-30T09:39:48.656Z,28.50
2018-08-30T09:42:17.068Z,27.07
2018-08-30T09:44:45.521Z,29.92
2018-08-30T09:47:13.958Z,32.58
2018-08-30T09:49:42.435Z,28.40
2018-08-30T09:52:10.900Z,29.48
2018-08-30T09:54:39.344Z,33.02
2018-08-30T09:57:08.053Z,34.40
2018-08-30T09:59:36.300Z,39.60
2018-08-30T10:02:10.146Z,33.18
2018-08-30T10:04:38.912Z,35.48
2018-08-30T10:07:07.359Z,37.35
2018-08-30T10:09:35.970Z,36.65
2018-08-30T10:12:04.382Z,35.80
2018-08-30T10:14:32.867Z,37.08
2018-08-30T10:17:01.344Z,34.75
2018-08-30T10:19:29.728Z,31.57
2018-08-30T10:21:58.112Z,35.90
2018-08-30T10:24:26.561Z,35.60
2018-08-30T10:26:55.092Z,32.88
2018-08-30T10:29:23.544Z,33.15
2018-08-30T10:31:51.956Z,32.65
2018-08-30T10:34:20.317Z,34.03
2018-08-30T10:36:48.752Z,30.07
2018-08-30T10:39:17.631Z,28.73
2018-08-30T10:41:46.048Z,30.57
2018-08-30T10:44:14.574Z,33.50
2018-08-30T10:46:43.231Z,32.78
2018-08-30T10:49:11.589Z,30.30
2018-08-30T10:51:40.020Z,33.23
2018-08-30T10:54:08.539Z,30.43
2018-08-30T10:56:36.995Z,27.32
2018-08-30T10:59:05.418Z,25.43
2018-08-30T11:01:34.064Z,28.45
2018-08-30T11:04:03.558Z,29.32
2018-08-30T11:06:32.040Z,26.10
2018-08-30T11:09:00.438Z,22.85
2018-08-30T11:11:28.816Z,23.67
2018-08-30T11:13:57.316Z,23.47
2018-08-30T11:16:25.705Z,23.12
2018-08-30T11:18:54.178Z,24.20
2018-08-30T11:21:22.557Z,17.45
2018-08-30T11:23:51.045Z,18.52
2018-08-30T11:26:19.443Z,19.57
2018-08-30T11:28:47.970Z,18.57
2018-08-30T11:31:16.354Z,20.80
2018-08-30T11:33:44.788Z,16.80
2018-08-30T11:36:13.159Z,14.87
2018-08-30T11:38:41.726Z,14.58
2018-08-30T11:41:10.109Z,13.85
2018-08-30T11:43:38.523Z,17.12
2018-08-30T11:46:06.901Z,12.53
2018-08-30T11:48:36.551Z,11.78
2018-08-30T11:51:04.973Z,13.53
2018-08-30T11:53:33.705Z,12.65
2018-08-30T11:56:02.073Z,11.18
2018-08-30T11:58:30.564Z,11.15
2018-08-30T12:01:00.072Z,10.75
2018-08-30T12:03:28.699Z,10.08
2018-08-30T12:05:57.438Z,12.88
2018-08-30T12:08:25.916Z,10.75
2018-08-30T12:10:54.562Z,10.63
2018-08-30T12:13:22.910Z,12.37
2018-08-30T12:15:51.280Z,12.63
2018-08-30T12:18:19.812Z,10.43
2018-08-30T12:20:48.377Z,11.30
2018-08-30T12:23:16.744Z,9.33
2018-08-30T12:25:45.130Z,9.03
2018-08-30T12:28:13.739Z,10.55
2018-08-30T12:30:42.202Z,8.43
2018-08-30T12:33:10.635Z,12.58
2018-08-30T12:35:39.280Z,10.55
2018-08-30T12:38:07.693Z,11.60
2018-08-30T12:40:36.163Z,10.18
2018-08-30T12:43:04.674Z,11.70
2018-08-30T12:45:33.145Z,12.50
2018-08-30T12:48:01.975Z,10.50
2018-08-30T12:50:30.872Z,12.73
2018-08-30T12:52:59.306Z,12.50
2018-08-30T12:55:27.718Z,11.20
2018-08-30T12:57:56.177Z,9.98
2018-08-30T13:00:24.740Z,11.68
2018-08-30T13:02:53.208Z,10.30
2018-08-30T13:05:21.803Z,12.95
2018-08-30T13:07:50.349Z,10.98
2018-08-30T13:10:18.851Z,11.15
2018-08-30T13:12:47.179Z,10.80
2018-08-30T13:15:15.991Z,10.40
2018-08-30T13:17:44.149Z,12.40
2018-08-30T13:20:12.669Z,10.75
2018-08-30T13:22:41.109Z,10.15
2018-08-30T13:25:10.084Z,11.33
2018-08-30T13:27:38.645Z,10.85
2018-08-30T13:30:07.839Z,14.87
2018-08-30T13:32:36.521Z,9.90
2018-08-30T13:35:05.086Z,11.85
2018-08-30T13:37:33.651Z,9.30
2018-08-30T13:40:01.977Z,9.93
2018-08-30T13:42:30.521Z,9.43
2018-08-30T13:44:58.934Z,10.80
2018-08-30T13:47:27.339Z,10.75
2018-08-30T13:49:55.557Z,9.83
2018-08-30T13:52:24.395Z,9.85
2018-08-30T13:54:52.888Z,9.33
2018-08-30T13:57:21.298Z,10.20
2018-08-30T13:59:50.191Z,9.33
2018-08-30T14:02:18.387Z,9.30
2018-08-30T14:04:46.735Z,9.58
2018-08-30T14:07:15.108Z,11.38
2018-08-30T14:09:43.709Z,8.48
2018-08-30T14:12:12.718Z,10.03
2018-08-30T14:14:41.103Z,9.63
2018-08-30T14:17:09.232Z,12.07
2018-08-30T14:19:37.772Z,11.25
2018-08-30T14:22:06.161Z,9.15
2018-08-30T14:24:34.799Z,11.30
2018-08-30T14:27:03.322Z,9.68
2018-08-30T14:29:31.699Z,10.58
2018-08-30T14:32:00.273Z,10.55
2018-08-30T14:34:29.150Z,9.58
2018-08-30T14:36:58.344Z,11.00
2018-08-30T14:39:26.761Z,15.38
2018-08-30T14:41:55.311Z,12.88
2018-08-30T14:44:23.750Z,11.03
2018-08-30T14:46:52.245Z,16.35
2018-08-30T14:49:22.459Z,12.65
2018-08-30T14:51:51.008Z,10.98
2018-08-30T14:54:19.636Z,17.52
2018-08-30T14:56:48.451Z,16.67
2018-08-30T14:59:16.830Z,12.25
2018-08-30T15:01:45.465Z,10.38
2018-08-30T15:04:13.962Z,12.85
2018-08-30T15:06:42.445Z,9.83
2018-08-30T15:09:11.300Z,13.03
2018-08-30T15:11:39.823Z,11.83
2018-08-30T15:14:08.312Z,10.18
2018-08-30T15:16:36.731Z,11.08
2018-08-30T15:19:05.337Z,9.18
2018-08-30T15:21:33.793Z,13.60
2018-08-30T15:24:02.179Z,10.60
2018-08-30T15:26:30.774Z,9.73
2018-08-30T15:28:59.245Z,12.35
2018-08-30T15:31:27.644Z,12.40
2018-08-30T15:33:56.353Z,13.70
2018-08-30T15:36:24.617Z,11.10
2018-08-30T15:38:53.418Z,11.50
2018-08-30T15:41:22.059Z,11.73
2018-08-30T15:43:50.432Z,13.08
2018-08-30T15:46:19.052Z,15.48
2018-08-30T15:48:49.034Z,13.58
2018-08-30T15:51:17.684Z,15.90
2018-08-30T15:53:46.556Z,14.03
2018-08-30T15:56:15.153Z,14.83
2018-08-30T15:58:44.316Z,14.23
2018-08-30T16:01:12.876Z,13.45
2018-08-30T16:03:41.498Z,12.90
2018-08-30T16:06:11.308Z,16.00
2018-08-30T16:08:40.709Z,12.93
2018-08-30T16:11:09.364Z,12.33
2018-08-30T16:13:37.762Z,12.97
2018-08-30T16:16:06.249Z,12.70
2018-08-30T16:18:34.751Z,11.80
2018-08-30T16:21:03.541Z,16.27
2018-08-30T16:23:34.329Z,12.30
2018-08-30T16:26:02.820Z,13.60
2018-08-30T16:28:32.200Z,11.73
2018-08-30T16:31:00.739Z,12.15
2018-08-30T16:33:29.303Z,12.43
2018-08-30T16:35:57.783Z,12.45
2018-08-30T16:38:26.274Z,11.80
2018-08-30T16:40:54.816Z,11.05
2018-08-30T16:43:23.342Z,11.57
2018-08-30T16:45:51.814Z,12.70
2018-08-30T16:48:20.257Z,12.83
2018-08-30T16:50:48.769Z,10.50
2018-08-30T16:53:17.361Z,9.10
2018-08-30T16:55:45.726Z,11.05
2018-08-30T16:58:14.194Z,9.60
2018-08-30T17:00:42.717Z,10.50
2018-08-30T17:03:11.207Z,10.10
2018-08-30T17:05:39.771Z,9.20
2018-08-30T17:08:08.218Z,10.27
2018-08-30T17:10:36.616Z,9.83
2018-08-30T17:13:05.092Z,9.53
2018-08-30T17:15:33.563Z,10.27
2018-08-30T17:18:02.145Z,9.93
2018-08-30T17:20:37.742Z,11.73
2018-08-30T17:23:06.123Z,11.97
2018-08-30T17:25:34.600Z,10.33
2018-08-30T17:28:03.035Z,10.63
2018-08-30T17:30:31.421Z,10.70
2018-08-30T17:32:59.940Z,11.13
2018-08-30T17:35:28.611Z,11.67
2018-08-30T17:37:57.246Z,12.70
2018-08-30T17:40:25.872Z,12.23
2018-08-30T17:42:54.461Z,12.27
2018-08-30T17:45:23.294Z,14.70
2018-08-30T17:47:51.848Z,12.87
2018-08-30T17:50:20.525Z,11.67
2018-08-30T17:52:49.046Z,11.13
2018-08-30T17:55:17.773Z,10.93
2018-08-30T17:57:46.437Z,10.03
2018-08-30T18:00:15.303Z,11.07
2018-08-30T18:02:45.050Z,11.17
2018-08-30T18:05:14.479Z,9.77
2018-08-30T18:07:43.252Z,9.30
2018-08-30T18:10:11.775Z,9.37
2018-08-30T18:12:41.094Z,8.13
2018-08-30T18:15:13.389Z,9.23
2018-08-30T18:17:42.056Z,9.40
2018-08-30T18:20:10.849Z,10.73
2018-08-30T18:22:39.616Z,8.90
2018-08-30T18:25:09.597Z,8.53
2018-08-30T18:27:38.516Z,9.70
2018-08-30T18:30:09.586Z,8.80
2018-08-30T18:32:38.398Z,7.73
2018-08-30T18:35:08.553Z,9.43
2018-08-30T18:37:37.363Z,8.60
2018-08-30T18:40:07.709Z,9.37
2018-08-30T18:42:36.353Z,9.87
2018-08-30T18:45:05.366Z,9.17
2018-08-30T18:47:33.994Z,8.07
2018-08-30T18:50:17.791Z,9.27
2018-08-30T18:52:46.474Z,8.60
2018-08-30T18:58:28.812Z,11.57
2018-08-30T19:00:57.212Z,7.70
2018-08-30T19:03:25.759Z,7.40
2018-08-30T19:05:54.204Z,7.17
2018-08-30T19:08:22.610Z,7.77
2018-08-30T19:10:51.260Z,7.63
2018-08-30T19:13:19.777Z,7.10
2018-08-30T19:15:53.462Z,8.00
2018-08-30T19:18:27.292Z,6.23
2018-08-30T19:20:55.785Z,6.00
2018-08-30T19:23:24.247Z,6.30
2018-08-30T19:25:52.709Z,5.17
2018-08-30T19:28:21.340Z,7.80
2018-08-30T19:30:49.708Z,6.97
2018-08-30T19:33:18.097Z,5.60
2018-08-30T19:35:51.957Z,6.90
2018-08-30T19:38:20.308Z,5.53
2018-08-30T19:40:53.951Z,5.80
2018-08-30T19:43:22.296Z,4.93
2018-08-30T19:45:50.694Z,4.93
2018-08-30T19:48:19.076Z,5.00
2018-08-30T19:50:47.427Z,5.07
2018-08-30T19:53:15.818Z,4.87
2018-08-30T19:55:44.180Z,4.57
2018-08-30T19:58:12.591Z,5.60
2018-08-30T20:00:41.083Z,6.37
2018-08-30T20:03:09.474Z,5.90
2018-08-30T20:05:37.825Z,5.23
2018-08-30T20:08:06.212Z,7.43
2018-08-30T20:10:34.732Z,5.60
2018-08-30T20:13:03.163Z,5.80
2018-08-30T20:15:31.487Z,7.80
2018-08-30T20:17:59.866Z,4.97
2018-08-30T20:20:28.233Z,4.77
2018-08-30T20:22:56.646Z,6.07
2018-08-30T20:25:25.010Z,5.43
2018-08-30T20:27:53.455Z,5.27
2018-08-30T20:30:21.848Z,7.97
2018-08-30T20:32:50.290Z,9.17
2018-08-30T20:35:18.627Z,5.60
2018-08-30T20:37:47.093Z,6.80
2018-08-30T20:40:15.415Z,7.03
2018-08-30T20:42:43.769Z,4.43
2018-08-30T20:45:24.489Z,9.50
2018-08-30T20:47:52.829Z,6.37
2018-08-30T20:50:21.206Z,7.30
2018-08-30T20:52:49.705Z,7.30
2018-08-30T20:55:18.062Z,7.10
2018-08-30T20:57:46.467Z,5.80
2018-08-30T21:00:14.925Z,7.13
2018-08-30T21:02:43.283Z,5.30
2018-08-30T21:05:11.664Z,9.53
2018-08-30T21:07:40.012Z,7.73
2018-08-30T21:10:08.391Z,10.03
2018-08-30T21:12:36.739Z,12.50
2018-08-30T21:15:05.089Z,6.07
2018-08-30T21:17:33.415Z,5.87
2018-08-30T21:20:01.792Z,12.83
2018-08-30T21:22:30.296Z,9.63
2018-08-30T21:24:58.639Z,4.80
2018-08-30T21:27:27.152Z,9.63
2018-08-30T21:29:55.737Z,5.57
2018-08-30T21:32:24.066Z,7.80
2018-08-30T21:34:52.510Z,9.90
2018-08-30T21:37:20.797Z,11.30
2018-08-30T21:39:49.241Z,9.83
2018-08-30T21:42:17.567Z,10.17
2018-08-30T21:44:45.886Z,4.73
2018-08-30T21:47:14.228Z,12.07
2018-08-30T21:49:42.678Z,8.90
2018-08-30T21:52:10.969Z,4.80
2018-08-30T21:54:39.292Z,7.03
2018-08-30T21:57:07.598Z,10.10
2018-08-30T21:59:35.929Z,8.10
2018-08-30T22:02:04.259Z,8.03
2018-08-30T22:04:32.677Z,8.70
2018-08-30T22:07:00.981Z,10.33
2018-08-30T22:09:29.376Z,12.00
2018-08-30T22:11:57.654Z,6.17
2018-08-30T22:14:25.950Z,9.47
2018-08-30T22:16:54.309Z,8.27
2018-08-30T22:19:23.376Z,11.43
2018-08-30T22:21:51.722Z,6.03
2018-08-30T22:24:20.103Z,7.03
2018-08-30T22:26:48.434Z,6.73
2018-08-30T22:29:16.775Z,10.33
2018-08-30T22:31:45.053Z,10.47
2018-08-30T22:34:13.421Z,11.17
2018-08-30T22:36:41.799Z,5.03
2018-08-30T22:39:10.111Z,9.73
2018-08-30T22:41:38.408Z,6.97
2018-08-30T22:44:06.792Z,12.50
2018-08-30T22:46:35.105Z,11.13
2018-08-30T22:49:03.398Z,8.10
2018-08-30T22:51:31.730Z,8.97
2018-08-30T22:54:00.171Z,6.40
2018-08-30T22:56:28.542Z,8.40
2018-08-30T22:58:56.870Z,8.90
2018-08-30T23:01:25.182Z,6.60
2018-08-30T23:03:53.499Z,15.13
2018-08-30T23:06:21.825Z,8.17
2018-08-30T23:08:50.137Z,9.10
2018-08-30T23:11:18.996Z,6.17
2018-08-30T23:13:47.334Z,6.20
2018-08-30T23:16:15.676Z,6.37
2018-08-30T23:18:43.993Z,6.70
2018-08-30T23:21:12.352Z,8.33
2018-08-30T23:23:40.630Z,4.63
2018-08-30T23:26:08.935Z,12.47
2018-08-30T23:28:37.219Z,9.77
2018-08-30T23:31:05.626Z,4.93
2018-08-30T23:33:33.927Z,7.67
2018-08-30T23:36:02.236Z,3.67
2018-08-30T23:38:30.593Z,9.60
2018-08-30T23:40:58.917Z,8.47
2018-08-30T23:43:27.266Z,7.10
2018-08-30T23:45:55.570Z,16.90
2018-08-30T23:48:23.898Z,9.27
2018-08-30T23:50:52.243Z,9.23
2018-08-30T23:53:20.554Z,7.27
2018-08-30T23:55:48.970Z,5.33
2018-08-30T23:58:28.784Z,10.53
